createdAt,value
2019-03-28T00:04:55.304Z,8.48
2019-03-28T00:14:56.016Z,8.49
2019-03-28T00:24:56.981Z,8.46
2019-03-28T00:34:57.649Z,8.09
2019-03-28T00:44:58.383Z,7.79
2019-03-28T00:54:59.354Z,7.69
2019-03-28T01:05:00.264Z,7.79
2019-03-28T01:15:02.256Z,7.87
2019-03-28T01:25:03.220Z,7.39
2019-03-28T01:35:04.922Z,7.68
2019-03-28T01:45:05.681Z,7.31
2019-03-28T01:55:06.467Z,7.78
2019-03-28T02:05:07.242Z,8.01
2019-03-28T02:15:08.171Z,8.06
2019-03-28T02:25:09.018Z,8.15
2019-03-28T02:35:09.796Z,8.10
2019-03-28T02:45:10.542Z,7.59
2019-03-28T02:55:11.146Z,7.78
2019-03-28T03:05:11.921Z,7.67
2019-03-28T03:15:12.894Z,7.67
2019-03-28T03:25:13.636Z,7.51
2019-03-28T03:35:15.076Z,7.81
2019-03-28T03:45:15.940Z,7.78
2019-03-28T03:55:17.059Z,7.72
2019-03-28T04:05:17.845Z,7.83
2019-03-28T04:15:18.609Z,7.83
2019-03-28T04:25:19.336Z,7.06
2019-03-28T04:35:20.022Z,7.56
2019-03-28T04:45:20.684Z,8.10
2019-03-28T04:55:21.550Z,8.49
2019-03-28T05:05:25.006Z,8.56
2019-03-28T05:15:25.771Z,8.72
2019-03-28T05:25:26.510Z,8.93
2019-03-28T05:35:27.392Z,8.87
2019-03-28T05:45:28.069Z,9.19
2019-03-28T05:55:28.836Z,9.51
2019-03-28T06:05:29.530Z,7.79
2019-03-28T06:15:30.334Z,6.75
2019-03-28T06:25:31.096Z,8.39
2019-03-28T06:35:31.788Z,9.26
2019-03-28T06:45:34.663Z,10.04
2019-03-28T06:55:36.939Z,11.15
2019-03-28T07:05:37.798Z,12.94
2019-03-28T07:15:38.716Z,14.46
2019-03-28T07:25:39.466Z,14.41
2019-03-28T07:35:40.206Z,11.88
2019-03-28T07:45:40.882Z,10.84
2019-03-28T07:55:41.565Z,12.05
2019-03-28T08:05:42.290Z,11.47
2019-03-28T08:15:43.039Z,10.42
2019-03-28T08:25:43.737Z,13.30
2019-03-28T08:35:50.043Z,10.03
2019-03-28T08:45:50.697Z,12.65
2019-03-28T08:55:53.537Z,13.28
2019-03-28T09:05:54.353Z,13.29
2019-03-28T09:15:55.074Z,11.16
2019-03-28T09:25:55.874Z,11.59
2019-03-28T09:35:57.576Z,13.22
2019-03-28T09:46:00.365Z,14.94
2019-03-28T09:56:01.227Z,12.57
2019-03-28T10:06:02.091Z,13.33
2019-03-28T10:16:02.833Z,12.84
2019-03-28T10:26:06.802Z,13.63
2019-03-28T10:36:08.541Z,14.25
2019-03-28T10:46:17.382Z,15.23
2019-03-28T10:56:21.950Z,13.25
2019-03-28T11:06:21.043Z,16.04
2019-03-28T11:16:21.787Z,15.30
2019-03-28T11:26:25.563Z,15.14
2019-03-28T11:36:26.198Z,15.82
2019-03-28T11:46:30.735Z,16.58
2019-03-28T11:56:31.422Z,17.33
2019-03-28T12:06:32.224Z,17.29
2019-03-28T12:16:34.058Z,17.73
2019-03-28T12:26:35.889Z,15.99
2019-03-28T12:36:36.609Z,14.45
2019-03-28T12:46:37.349Z,15.60
2019-03-28T12:56:38.580Z,14.70
2019-03-28T13:06:39.316Z,14.49
2019-03-28T13:16:43.253Z,15.63
2019-03-28T13:26:44.065Z,15.96
2019-03-28T13:36:47.602Z,17.20
2019-03-28T13:46:51.419Z,15.66
2019-03-28T13:56:52.149Z,16.16
2019-03-28T14:06:52.921Z,16.10
2019-03-28T14:17:04.783Z,17.30
2019-03-28T14:27:06.649Z,16.77
2019-03-28T14:37:11.583Z,18.31
2019-03-28T14:47:12.380Z,17.63
2019-03-28T14:57:13.679Z,16.13
2019-03-28T15:07:14.423Z,15.22
2019-03-28T15:17:15.137Z,15.07
2019-03-28T15:27:15.954Z,15.86
2019-03-28T15:37:17.560Z,16.57
2019-03-28T15:47:20.607Z,16.24
2019-03-28T15:57:21.254Z,15.64
2019-03-28T16:07:22.405Z,15.47
2019-03-28T16:17:23.187Z,15.59
2019-03-28T16:27:23.998Z,15.58
2019-03-28T16:37:24.675Z,15.23
2019-03-28T16:47:26.427Z,15.40
2019-03-28T16:57:32.742Z,15.58
2019-03-28T17:07:35.702Z,15.64
2019-03-28T17:17:38.434Z,16.44
2019-03-28T17:27:42.183Z,17.58
2019-03-28T17:37:46.930Z,16.24
2019-03-28T17:47:48.101Z,17.66
2019-03-28T17:57:48.844Z,18.43
2019-03-28T18:07:50.659Z,18.35
2019-03-28T18:17:51.605Z,18.06
2019-03-28T18:27:52.372Z,17.76
2019-03-28T18:37:53.459Z,17.53
2019-03-28T18:47:54.310Z,17.51
2019-03-28T18:57:55.183Z,16.62
2019-03-28T19:07:55.989Z,16.64
2019-03-28T19:17:59.713Z,16.40
2019-03-28T19:28:00.433Z,17.05
2019-03-28T19:38:01.758Z,17.03
2019-03-28T19:48:04.810Z,16.62
2019-03-28T19:58:07.302Z,15.70
2019-03-28T20:08:15.437Z,14.54
2019-03-28T20:18:12.632Z,14.20
2019-03-28T20:28:14.597Z,13.40
2019-03-28T20:38:16.479Z,13.78
2019-03-28T20:48:25.011Z,15.10
2019-03-28T20:58:25.864Z,14.25
2019-03-28T21:08:26.497Z,14.08
2019-03-28T21:18:27.245Z,13.49
2019-03-28T21:28:27.877Z,14.00
2019-03-28T21:38:29.581Z,13.82
2019-03-28T21:48:30.269Z,13.49
2019-03-28T21:58:31.036Z,13.22
2019-03-28T22:08:32.233Z,12.88
2019-03-28T22:18:33.919Z,12.73
2019-03-28T22:28:37.855Z,11.95
2019-03-28T22:38:37.470Z,11.76
2019-03-28T22:48:38.107Z,11.72
2019-03-28T22:58:38.820Z,11.30
2019-03-28T23:08:39.566Z,11.07
2019-03-28T23:18:41.381Z,11.06
2019-03-28T23:28:42.096Z,11.76
2019-03-28T23:38:46.162Z,11.50
2019-03-28T23:48:47.894Z,11.14
2019-03-28T23:58:49.059Z,11.16
